sensor_id;sensor_type;location;lat;lon;timestamp;P1;durP1;ratioP1;P2;durP2;ratioP2
39400;SDS011;54391;50.000;7.360;2022-11-15T00:02:24;5.18;;;4.18;;
39400;SDS011;54391;50.000;7.360;2022-11-15T00:05:12;5.80;;;4.97;;
39400;SDS011;54391;50.000;7.360;2022-11-15T00:07:58;6.18;;;5.03;;
39400;SDS011;54391;50.000;7.360;2022-11-15T00:10:53;5.65;;;5.05;;
39400;SDS011;54391;50.000;7.360;2022-11-15T00:13:40;5.90;;;5.07;;
39400;SDS011;54391;50.000;7.360;2022-11-15T00:16:28;6.70;;;5.38;;
39400;SDS011;54391;50.000;7.360;2022-11-15T00:19:14;7.18;;;5.82;;
39400;SDS011;54391;50.000;7.360;2022-11-15T00:22:00;5.70;;;5.03;;
39400;SDS011;54391;50.000;7.360;2022-11-15T00:24:47;6.95;;;5.70;;
39400;SDS011;54391;50.000;7.360;2022-11-15T00:27:33;6.13;;;4.75;;
39400;SDS011;54391;50.000;7.360;2022-11-15T00:30:19;7.20;;;5.70;;
39400;SDS011;54391;50.000;7.360;2022-11-15T00:33:06;7.97;;;5.25;;
39400;SDS011;54391;50.000;7.360;2022-11-15T00:35:58;7.22;;;5.18;;
39400;SDS011;54391;50.000;7.360;2022-11-15T00:38:46;6.10;;;4.90;;
39400;SDS011;54391;50.000;7.360;2022-11-15T00:41:32;6.55;;;4.90;;
39400;SDS011;54391;50.000;7.360;2022-11-15T00:44:18;6.50;;;4.57;;
39400;SDS011;54391;50.000;7.360;2022-11-15T00:47:04;6.05;;;4.90;;
39400;SDS011;54391;50.000;7.360;2022-11-15T00:49:51;5.07;;;4.10;;
39400;SDS011;54391;50.000;7.360;2022-11-15T00:52:37;5.85;;;4.47;;
39400;SDS011;54391;50.000;7.360;2022-11-15T00:55:23;5.32;;;3.88;;
39400;SDS011;54391;50.000;7.360;2022-11-15T00:58:09;3.90;;;3.42;;
39400;SDS011;54391;50.000;7.360;2022-11-15T01:00:55;5.45;;;3.85;;
39400;SDS011;54391;50.000;7.360;2022-11-15T01:03:41;3.92;;;3.10;;
39400;SDS011;54391;50.000;7.360;2022-11-15T01:06:29;5.70;;;3.50;;
39400;SDS011;54391;50.000;7.360;2022-11-15T01:09:15;5.43;;;3.40;;
39400;SDS011;54391;50.000;7.360;2022-11-15T01:12:02;5.82;;;3.15;;
39400;SDS011;54391;50.000;7.360;2022-11-15T01:17:34;3.45;;;2.75;;
39400;SDS011;54391;50.000;7.360;2022-11-15T01:20:20;3.72;;;2.90;;
39400;SDS011;54391;50.000;7.360;2022-11-15T01:23:07;3.65;;;2.67;;
39400;SDS011;54391;50.000;7.360;2022-11-15T01:25:58;3.03;;;2.60;;
39400;SDS011;54391;50.000;7.360;2022-11-15T01:28:45;4.28;;;3.15;;
39400;SDS011;54391;50.000;7.360;2022-11-15T01:31:32;3.88;;;2.90;;
39400;SDS011;54391;50.000;7.360;2022-11-15T01:34:18;3.90;;;2.63;;
39400;SDS011;54391;50.000;7.360;2022-11-15T01:37:04;3.20;;;2.35;;
39400;SDS011;54391;50.000;7.360;2022-11-15T01:39:51;3.80;;;2.30;;
39400;SDS011;54391;50.000;7.360;2022-11-15T01:42:37;9.13;;;3.97;;
39400;SDS011;54391;50.000;7.360;2022-11-15T01:45:23;3.22;;;2.33;;
39400;SDS011;54391;50.000;7.360;2022-11-15T01:48:09;3.10;;;1.73;;
39400;SDS011;54391;50.000;7.360;2022-11-15T01:50:56;5.95;;;2.20;;
39400;SDS011;54391;50.000;7.360;2022-11-15T01:53:43;4.07;;;2.67;;
39400;SDS011;54391;50.000;7.360;2022-11-15T01:56:36;2.97;;;2.15;;
39400;SDS011;54391;50.000;7.360;2022-11-15T01:59:24;2.88;;;2.20;;
39400;SDS011;54391;50.000;7.360;2022-11-15T02:02:11;3.33;;;2.25;;
39400;SDS011;54391;50.000;7.360;2022-11-15T02:04:58;3.60;;;3.20;;
39400;SDS011;54391;50.000;7.360;2022-11-15T02:07:46;3.17;;;2.00;;
39400;SDS011;54391;50.000;7.360;2022-11-15T02:10:33;2.90;;;2.22;;
39400;SDS011;54391;50.000;7.360;2022-11-15T02:16:09;2.78;;;2.20;;
39400;SDS011;54391;50.000;7.360;2022-11-15T02:19:05;3.35;;;2.28;;
39400;SDS011;54391;50.000;7.360;2022-11-15T02:22:04;2.88;;;2.28;;
39400;SDS011;54391;50.000;7.360;2022-11-15T02:25:13;3.35;;;2.15;;
39400;SDS011;54391;50.000;7.360;2022-11-15T02:28:30;3.83;;;2.45;;
39400;SDS011;54391;50.000;7.360;2022-11-15T02:31:36;3.17;;;2.08;;
39400;SDS011;54391;50.000;7.360;2022-11-15T02:34:33;4.63;;;2.25;;
39400;SDS011;54391;50.000;7.360;2022-11-15T02:37:34;5.00;;;1.98;;
39400;SDS011;54391;50.000;7.360;2022-11-15T02:40:31;3.78;;;2.08;;
39400;SDS011;54391;50.000;7.360;2022-11-15T02:43:24;2.22;;;1.73;;
39400;SDS011;54391;50.000;7.360;2022-11-15T02:46:33;3.90;;;2.35;;
39400;SDS011;54391;50.000;7.360;2022-11-15T02:49:43;2.65;;;1.60;;
39400;SDS011;54391;50.000;7.360;2022-11-15T02:52:32;2.85;;;1.75;;
39400;SDS011;54391;50.000;7.360;2022-11-15T02:55:26;2.35;;;1.60;;
39400;SDS011;54391;50.000;7.360;2022-11-15T02:58:26;2.78;;;1.40;;
39400;SDS011;54391;50.000;7.360;2022-11-15T03:01:34;1.80;;;1.30;;
39400;SDS011;54391;50.000;7.360;2022-11-15T03:04:34;1.55;;;1.13;;
39400;SDS011;54391;50.000;7.360;2022-11-15T03:07:28;2.88;;;1.88;;
39400;SDS011;54391;50.000;7.360;2022-11-15T03:10:18;1.80;;;1.38;;
39400;SDS011;54391;50.000;7.360;2022-11-15T03:13:09;1.67;;;1.10;;
39400;SDS011;54391;50.000;7.360;2022-11-15T03:16:03;1.52;;;1.23;;
39400;SDS011;54391;50.000;7.360;2022-11-15T03:18:57;3.78;;;1.35;;
39400;SDS011;54391;50.000;7.360;2022-11-15T03:21:48;2.03;;;1.50;;
39400;SDS011;54391;50.000;7.360;2022-11-15T03:24:37;2.00;;;1.40;;
39400;SDS011;54391;50.000;7.360;2022-11-15T03:27:25;2.17;;;1.60;;
39400;SDS011;54391;50.000;7.360;2022-11-15T03:30:17;2.00;;;1.20;;
39400;SDS011;54391;50.000;7.360;2022-11-15T03:33:03;2.17;;;1.27;;
39400;SDS011;54391;50.000;7.360;2022-11-15T03:35:51;2.58;;;1.83;;
39400;SDS011;54391;50.000;7.360;2022-11-15T03:38:39;2.20;;;1.52;;
39400;SDS011;54391;50.000;7.360;2022-11-15T03:41:27;2.05;;;1.52;;
39400;SDS011;54391;50.000;7.360;2022-11-15T03:44:21;2.60;;;1.42;;
39400;SDS011;54391;50.000;7.360;2022-11-15T03:47:18;1.90;;;1.30;;
39400;SDS011;54391;50.000;7.360;2022-11-15T03:50:07;1.95;;;1.27;;
39400;SDS011;54391;50.000;7.360;2022-11-15T03:52:58;2.55;;;1.35;;
39400;SDS011;54391;50.000;7.360;2022-11-15T03:55:46;2.30;;;1.52;;
39400;SDS011;54391;50.000;7.360;2022-11-15T03:58:32;1.75;;;1.25;;
39400;SDS011;54391;50.000;7.360;2022-11-15T04:01:18;2.92;;;1.50;;
39400;SDS011;54391;50.000;7.360;2022-11-15T04:04:04;2.27;;;1.50;;
39400;SDS011;54391;50.000;7.360;2022-11-15T04:06:50;1.85;;;1.27;;
39400;SDS011;54391;50.000;7.360;2022-11-15T04:09:37;1.60;;;1.10;;
39400;SDS011;54391;50.000;7.360;2022-11-15T04:12:44;2.00;;;1.55;;
39400;SDS011;54391;50.000;7.360;2022-11-15T04:15:31;2.28;;;1.50;;
39400;SDS011;54391;50.000;7.360;2022-11-15T04:18:18;1.95;;;1.60;;
39400;SDS011;54391;50.000;7.360;2022-11-15T04:21:04;2.80;;;1.60;;
39400;SDS011;54391;50.000;7.360;2022-11-15T04:24:08;1.85;;;1.25;;
39400;SDS011;54391;50.000;7.360;2022-11-15T04:27:01;1.98;;;1.30;;
39400;SDS011;54391;50.000;7.360;2022-11-15T04:29:47;2.38;;;1.20;;
39400;SDS011;54391;50.000;7.360;2022-11-15T04:32:33;1.83;;;1.30;;
39400;SDS011;54391;50.000;7.360;2022-11-15T04:35:19;3.25;;;1.60;;
39400;SDS011;54391;50.000;7.360;2022-11-15T04:38:07;2.20;;;1.40;;
39400;SDS011;54391;50.000;7.360;2022-11-15T04:40:54;1.98;;;1.45;;
39400;SDS011;54391;50.000;7.360;2022-11-15T04:43:41;1.92;;;1.58;;
39400;SDS011;54391;50.000;7.360;2022-11-15T04:46:27;2.42;;;1.63;;
39400;SDS011;54391;50.000;7.360;2022-11-15T04:52:00;2.25;;;1.50;;
39400;SDS011;54391;50.000;7.360;2022-11-15T04:54:47;3.25;;;1.60;;
39400;SDS011;54391;50.000;7.360;2022-11-15T04:57:33;2.63;;;1.80;;
39400;SDS011;54391;50.000;7.360;2022-11-15T05:00:20;3.35;;;1.58;;
39400;SDS011;54391;50.000;7.360;2022-11-15T05:03:08;3.03;;;1.52;;
39400;SDS011;54391;50.000;7.360;2022-11-15T05:06:11;3.92;;;1.73;;
39400;SDS011;54391;50.000;7.360;2022-11-15T05:08:58;2.35;;;1.63;;
39400;SDS011;54391;50.000;7.360;2022-11-15T05:11:46;2.55;;;1.88;;
39400;SDS011;54391;50.000;7.360;2022-11-15T05:14:32;1.90;;;1.38;;
39400;SDS011;54391;50.000;7.360;2022-11-15T05:17:20;2.92;;;1.70;;
39400;SDS011;54391;50.000;7.360;2022-11-15T05:20:06;4.20;;;2.55;;
39400;SDS011;54391;50.000;7.360;2022-11-15T05:22:53;3.08;;;1.88;;
39400;SDS011;54391;50.000;7.360;2022-11-15T05:25:39;2.35;;;1.77;;
39400;SDS011;54391;50.000;7.360;2022-11-15T05:28:25;2.50;;;1.88;;
39400;SDS011;54391;50.000;7.360;2022-11-15T05:31:13;2.85;;;1.98;;
39400;SDS011;54391;50.000;7.360;2022-11-15T05:34:01;2.80;;;2.20;;
39400;SDS011;54391;50.000;7.360;2022-11-15T05:36:49;2.70;;;1.90;;
39400;SDS011;54391;50.000;7.360;2022-11-15T05:39:35;3.20;;;2.22;;
39400;SDS011;54391;50.000;7.360;2022-11-15T05:42:22;4.15;;;2.47;;
39400;SDS011;54391;50.000;7.360;2022-11-15T05:45:09;3.63;;;2.38;;
39400;SDS011;54391;50.000;7.360;2022-11-15T05:47:56;3.72;;;2.30;;
39400;SDS011;54391;50.000;7.360;2022-11-15T05:50:47;4.22;;;2.70;;
39400;SDS011;54391;50.000;7.360;2022-11-15T05:53:33;3.33;;;2.15;;
39400;SDS011;54391;50.000;7.360;2022-11-15T05:56:21;3.83;;;2.72;;
39400;SDS011;54391;50.000;7.360;2022-11-15T05:59:07;3.00;;;2.15;;
39400;SDS011;54391;50.000;7.360;2022-11-15T06:01:54;3.58;;;2.47;;
39400;SDS011;54391;50.000;7.360;2022-11-15T06:04:40;3.63;;;2.50;;
39400;SDS011;54391;50.000;7.360;2022-11-15T06:07:28;4.95;;;2.72;;
39400;SDS011;54391;50.000;7.360;2022-11-15T06:10:14;3.88;;;2.53;;
39400;SDS011;54391;50.000;7.360;2022-11-15T06:13:03;4.03;;;2.70;;
39400;SDS011;54391;50.000;7.360;2022-11-15T06:15:50;3.60;;;2.60;;
39400;SDS011;54391;50.000;7.360;2022-11-15T06:18:36;3.28;;;2.45;;
39400;SDS011;54391;50.000;7.360;2022-11-15T06:21:22;3.22;;;2.47;;
39400;SDS011;54391;50.000;7.360;2022-11-15T06:24:09;3.10;;;2.10;;
39400;SDS011;54391;50.000;7.360;2022-11-15T06:26:55;3.63;;;2.13;;
39400;SDS011;54391;50.000;7.360;2022-11-15T06:29:42;3.33;;;2.53;;
39400;SDS011;54391;50.000;7.360;2022-11-15T06:32:29;4.35;;;2.60;;
39400;SDS011;54391;50.000;7.360;2022-11-15T06:35:15;3.25;;;2.33;;
39400;SDS011;54391;50.000;7.360;2022-11-15T06:38:03;3.75;;;2.78;;
39400;SDS011;54391;50.000;7.360;2022-11-15T06:40:51;3.53;;;2.22;;
39400;SDS011;54391;50.000;7.360;2022-11-15T06:43:37;2.75;;;2.22;;
39400;SDS011;54391;50.000;7.360;2022-11-15T06:46:23;3.30;;;2.10;;
39400;SDS011;54391;50.000;7.360;2022-11-15T06:49:10;3.72;;;2.15;;
39400;SDS011;54391;50.000;7.360;2022-11-15T06:51:56;2.95;;;2.25;;
39400;SDS011;54391;50.000;7.360;2022-11-15T06:54:42;2.90;;;2.30;;
39400;SDS011;54391;50.000;7.360;2022-11-15T06:57:29;3.78;;;2.22;;
39400;SDS011;54391;50.000;7.360;2022-11-15T07:00:17;2.70;;;1.98;;
39400;SDS011;54391;50.000;7.360;2022-11-15T07:03:04;2.65;;;1.83;;
39400;SDS011;54391;50.000;7.360;2022-11-15T07:05:51;3.25;;;2.30;;
39400;SDS011;54391;50.000;7.360;2022-11-15T07:08:38;6.05;;;3.13;;
39400;SDS011;54391;50.000;7.360;2022-11-15T07:11:25;3.60;;;2.38;;
39400;SDS011;54391;50.000;7.360;2022-11-15T07:14:13;4.25;;;2.53;;
39400;SDS011;54391;50.000;7.360;2022-11-15T07:16:59;3.45;;;2.85;;
39400;SDS011;54391;50.000;7.360;2022-11-15T07:19:47;3.70;;;2.65;;
39400;SDS011;54391;50.000;7.360;2022-11-15T07:22:33;3.83;;;2.40;;
39400;SDS011;54391;50.000;7.360;2022-11-15T07:25:19;3.40;;;2.20;;
39400;SDS011;54391;50.000;7.360;2022-11-15T07:28:05;3.37;;;2.47;;
39400;SDS011;54391;50.000;7.360;2022-11-15T07:30:52;2.90;;;2.22;;
39400;SDS011;54391;50.000;7.360;2022-11-15T07:33:39;3.47;;;2.22;;
39400;SDS011;54391;50.000;7.360;2022-11-15T07:36:25;3.22;;;2.53;;
39400;SDS011;54391;50.000;7.360;2022-11-15T07:39:11;3.38;;;2.38;;
39400;SDS011;54391;50.000;7.360;2022-11-15T07:41:58;3.85;;;2.08;;
39400;SDS011;54391;50.000;7.360;2022-11-15T07:45:02;3.85;;;2.28;;
39400;SDS011;54391;50.000;7.360;2022-11-15T07:47:50;3.65;;;2.60;;
39400;SDS011;54391;50.000;7.360;2022-11-15T07:50:36;4.07;;;2.17;;
39400;SDS011;54391;50.000;7.360;2022-11-15T07:53:26;4.25;;;2.53;;
39400;SDS011;54391;50.000;7.360;2022-11-15T07:56:12;4.57;;;3.28;;
39400;SDS011;54391;50.000;7.360;2022-11-15T07:58:58;3.85;;;2.58;;
39400;SDS011;54391;50.000;7.360;2022-11-15T08:01:45;6.55;;;3.63;;
39400;SDS011;54391;50.000;7.360;2022-11-15T08:04:33;8.10;;;2.58;;
39400;SDS011;54391;50.000;7.360;2022-11-15T08:07:19;5.38;;;2.80;;
39400;SDS011;54391;50.000;7.360;2022-11-15T08:10:05;8.98;;;3.30;;
39400;SDS011;54391;50.000;7.360;2022-11-15T08:12:59;9.77;;;3.15;;
39400;SDS011;54391;50.000;7.360;2022-11-15T08:15:47;3.72;;;2.30;;
39400;SDS011;54391;50.000;7.360;2022-11-15T08:18:34;4.38;;;1.80;;
39400;SDS011;54391;50.000;7.360;2022-11-15T08:21:21;3.70;;;2.00;;
39400;SDS011;54391;50.000;7.360;2022-11-15T08:24:08;2.10;;;1.40;;
39400;SDS011;54391;50.000;7.360;2022-11-15T08:26:55;2.53;;;1.65;;
39400;SDS011;54391;50.000;7.360;2022-11-15T08:29:42;3.15;;;2.25;;
39400;SDS011;54391;50.000;7.360;2022-11-15T08:32:30;3.03;;;1.85;;
39400;SDS011;54391;50.000;7.360;2022-11-15T08:38:03;2.67;;;1.67;;
39400;SDS011;54391;50.000;7.360;2022-11-15T08:40:50;2.35;;;1.85;;
39400;SDS011;54391;50.000;7.360;2022-11-15T08:43:37;3.28;;;2.03;;
39400;SDS011;54391;50.000;7.360;2022-11-15T08:46:23;2.35;;;1.65;;
39400;SDS011;54391;50.000;7.360;2022-11-15T08:49:09;3.00;;;1.95;;
39400;SDS011;54391;50.000;7.360;2022-11-15T08:51:55;2.45;;;1.80;;
39400;SDS011;54391;50.000;7.360;2022-11-15T08:54:42;3.40;;;2.30;;
39400;SDS011;54391;50.000;7.360;2022-11-15T08:57:28;3.92;;;1.95;;
39400;SDS011;54391;50.000;7.360;2022-11-15T09:00:15;3.85;;;2.13;;
39400;SDS011;54391;50.000;7.360;2022-11-15T09:03:03;3.60;;;2.20;;
39400;SDS011;54391;50.000;7.360;2022-11-15T09:05:53;5.28;;;2.45;;
39400;SDS011;54391;50.000;7.360;2022-11-15T09:08:40;4.07;;;1.88;;
39400;SDS011;54391;50.000;7.360;2022-11-15T09:11:28;1.92;;;1.48;;
39400;SDS011;54391;50.000;7.360;2022-11-15T09:14:14;3.25;;;1.60;;
39400;SDS011;54391;50.000;7.360;2022-11-15T09:17:00;3.83;;;2.13;;
39400;SDS011;54391;50.000;7.360;2022-11-15T09:19:46;2.40;;;1.80;;
39400;SDS011;54391;50.000;7.360;2022-11-15T09:22:33;4.97;;;2.22;;
39400;SDS011;54391;50.000;7.360;2022-11-15T09:25:20;4.78;;;2.15;;
39400;SDS011;54391;50.000;7.360;2022-11-15T09:28:07;5.07;;;2.10;;
39400;SDS011;54391;50.000;7.360;2022-11-15T09:30:55;3.00;;;2.00;;
39400;SDS011;54391;50.000;7.360;2022-11-15T09:33:43;3.83;;;2.30;;
39400;SDS011;54391;50.000;7.360;2022-11-15T09:36:29;4.07;;;2.10;;
39400;SDS011;54391;50.000;7.360;2022-11-15T09:39:15;4.18;;;2.40;;
39400;SDS011;54391;50.000;7.360;2022-11-15T09:42:08;5.57;;;2.72;;
39400;SDS011;54391;50.000;7.360;2022-11-15T09:45:12;6.40;;;3.03;;
39400;SDS011;54391;50.000;7.360;2022-11-15T09:48:08;5.80;;;2.83;;
39400;SDS011;54391;50.000;7.360;2022-11-15T09:51:06;4.57;;;2.70;;
39400;SDS011;54391;50.000;7.360;2022-11-15T09:53:41;4.13;;;2.80;;
39400;SDS011;54391;50.000;7.360;2022-11-15T09:56:16;3.80;;;2.28;;
39400;SDS011;54391;50.000;7.360;2022-11-15T09:58:49;4.05;;;2.60;;
39400;SDS011;54391;50.000;7.360;2022-11-15T10:01:29;3.80;;;2.58;;
39400;SDS011;54391;50.000;7.360;2022-11-15T10:04:04;4.72;;;2.75;;
39400;SDS011;54391;50.000;7.360;2022-11-15T10:06:32;5.60;;;2.70;;
39400;SDS011;54391;50.000;7.360;2022-11-15T10:09:04;6.18;;;2.60;;
39400;SDS011;54391;50.000;7.360;2022-11-15T10:11:39;4.70;;;2.30;;
39400;SDS011;54391;50.000;7.360;2022-11-15T10:14:09;4.63;;;2.75;;
39400;SDS011;54391;50.000;7.360;2022-11-15T10:16:45;9.07;;;3.17;;
39400;SDS011;54391;50.000;7.360;2022-11-15T10:19:34;4.88;;;3.05;;
39400;SDS011;54391;50.000;7.360;2022-11-15T10:22:11;5.65;;;3.13;;
39400;SDS011;54391;50.000;7.360;2022-11-15T10:24:52;4.57;;;2.53;;
39400;SDS011;54391;50.000;7.360;2022-11-15T10:27:36;3.17;;;2.25;;
39400;SDS011;54391;50.000;7.360;2022-11-15T10:30:06;5.32;;;2.70;;
39400;SDS011;54391;50.000;7.360;2022-11-15T10:32:40;6.00;;;2.72;;
39400;SDS011;54391;50.000;7.360;2022-11-15T10:35:17;6.57;;;2.40;;
39400;SDS011;54391;50.000;7.360;2022-11-15T10:37:46;5.00;;;1.92;;
39400;SDS011;54391;50.000;7.360;2022-11-15T10:40:16;4.30;;;2.28;;
39400;SDS011;54391;50.000;7.360;2022-11-15T10:42:47;3.95;;;2.33;;
39400;SDS011;54391;50.000;7.360;2022-11-15T10:45:22;4.35;;;2.40;;
39400;SDS011;54391;50.000;7.360;2022-11-15T10:47:53;4.70;;;2.42;;
39400;SDS011;54391;50.000;7.360;2022-11-15T10:50:41;5.65;;;2.90;;
39400;SDS011;54391;50.000;7.360;2022-11-15T10:53:11;4.35;;;2.60;;
39400;SDS011;54391;50.000;7.360;2022-11-15T10:55:46;6.75;;;2.55;;
39400;SDS011;54391;50.000;7.360;2022-11-15T10:58:20;5.43;;;2.40;;
39400;SDS011;54391;50.000;7.360;2022-11-15T11:00:53;5.15;;;2.53;;
39400;SDS011;54391;50.000;7.360;2022-11-15T11:03:27;4.15;;;2.25;;
39400;SDS011;54391;50.000;7.360;2022-11-15T11:06:04;3.78;;;2.10;;
39400;SDS011;54391;50.000;7.360;2022-11-15T11:08:33;5.47;;;2.50;;
39400;SDS011;54391;50.000;7.360;2022-11-15T11:11:02;3.47;;;2.40;;
39400;SDS011;54391;50.000;7.360;2022-11-15T11:13:31;5.95;;;2.30;;
39400;SDS011;54391;50.000;7.360;2022-11-15T11:16:14;4.32;;;1.90;;
39400;SDS011;54391;50.000;7.360;2022-11-15T11:19:23;6.95;;;2.58;;
39400;SDS011;54391;50.000;7.360;2022-11-15T11:22:20;2.92;;;1.77;;
39400;SDS011;54391;50.000;7.360;2022-11-15T11:24:56;2.67;;;1.63;;
39400;SDS011;54391;50.000;7.360;2022-11-15T11:27:42;3.63;;;1.30;;
39400;SDS011;54391;50.000;7.360;2022-11-15T11:30:17;5.38;;;1.40;;
39400;SDS011;54391;50.000;7.360;2022-11-15T11:33:03;1.88;;;1.30;;
39400;SDS011;54391;50.000;7.360;2022-11-15T11:35:42;3.33;;;1.17;;
39400;SDS011;54391;50.000;7.360;2022-11-15T11:38:24;3.53;;;1.80;;
39400;SDS011;54391;50.000;7.360;2022-11-15T11:41:09;1.98;;;1.17;;
39400;SDS011;54391;50.000;7.360;2022-11-15T11:43:51;3.38;;;1.33;;
39400;SDS011;54391;50.000;7.360;2022-11-15T11:46:32;2.83;;;1.50;;
39400;SDS011;54391;50.000;7.360;2022-11-15T11:49:21;4.82;;;1.58;;
39400;SDS011;54391;50.000;7.360;2022-11-15T11:51:56;2.20;;;1.15;;
39400;SDS011;54391;50.000;7.360;2022-11-15T11:54:31;1.87;;;1.00;;
39400;SDS011;54391;50.000;7.360;2022-11-15T11:57:04;2.92;;;1.13;;
39400;SDS011;54391;50.000;7.360;2022-11-15T11:59:39;2.22;;;1.10;;
39400;SDS011;54391;50.000;7.360;2022-11-15T12:02:12;1.95;;;1.00;;
39400;SDS011;54391;50.000;7.360;2022-11-15T12:04:47;3.80;;;1.20;;
39400;SDS011;54391;50.000;7.360;2022-11-15T12:07:21;1.73;;;0.98;;
39400;SDS011;54391;50.000;7.360;2022-11-15T12:09:53;1.42;;;0.65;;
39400;SDS011;54391;50.000;7.360;2022-11-15T12:12:27;3.30;;;1.00;;
39400;SDS011;54391;50.000;7.360;2022-11-15T12:15:02;3.85;;;0.98;;
39400;SDS011;54391;50.000;7.360;2022-11-15T12:17:36;4.55;;;1.20;;
39400;SDS011;54391;50.000;7.360;2022-11-15T12:20:14;1.55;;;0.88;;
39400;SDS011;54391;50.000;7.360;2022-11-15T12:22:47;2.15;;;0.70;;
39400;SDS011;54391;50.000;7.360;2022-11-15T12:25:21;1.92;;;0.88;;
39400;SDS011;54391;50.000;7.360;2022-11-15T12:27:54;2.40;;;1.23;;
39400;SDS011;54391;50.000;7.360;2022-11-15T12:30:29;2.58;;;0.90;;
39400;SDS011;54391;50.000;7.360;2022-11-15T12:35:57;2.05;;;0.90;;
39400;SDS011;54391;50.000;7.360;2022-11-15T12:41:21;5.32;;;1.08;;
39400;SDS011;54391;50.000;7.360;2022-11-15T12:43:50;1.85;;;0.90;;
39400;SDS011;54391;50.000;7.360;2022-11-15T12:46:22;1.90;;;1.17;;
39400;SDS011;54391;50.000;7.360;2022-11-15T12:49:23;1.90;;;1.20;;
39400;SDS011;54391;50.000;7.360;2022-11-15T12:52:15;2.85;;;1.38;;
39400;SDS011;54391;50.000;7.360;2022-11-15T12:54:53;3.53;;;1.65;;
39400;SDS011;54391;50.000;7.360;2022-11-15T12:57:30;3.03;;;1.63;;
39400;SDS011;54391;50.000;7.360;2022-11-15T13:00:05;2.17;;;1.00;;
39400;SDS011;54391;50.000;7.360;2022-11-15T13:03:23;2.28;;;1.33;;
39400;SDS011;54391;50.000;7.360;2022-11-15T13:05:59;3.42;;;1.10;;
39400;SDS011;54391;50.000;7.360;2022-11-15T13:08:57;2.38;;;1.25;;
39400;SDS011;54391;50.000;7.360;2022-11-15T13:11:47;2.53;;;1.40;;
39400;SDS011;54391;50.000;7.360;2022-11-15T13:20:01;1.48;;;1.05;;
39400;SDS011;54391;50.000;7.360;2022-11-15T13:22:46;2.17;;;1.30;;
39400;SDS011;54391;50.000;7.360;2022-11-15T13:25:27;2.53;;;1.00;;
39400;SDS011;54391;50.000;7.360;2022-11-15T13:28:21;2.72;;;1.17;;
39400;SDS011;54391;50.000;7.360;2022-11-15T13:30:54;19.15;;;8.00;;
39400;SDS011;54391;50.000;7.360;2022-11-15T13:33:23;4.35;;;1.40;;
39400;SDS011;54391;50.000;7.360;2022-11-15T13:35:56;4.47;;;1.92;;
39400;SDS011;54391;50.000;7.360;2022-11-15T13:38:28;4.95;;;2.33;;
39400;SDS011;54391;50.000;7.360;2022-11-15T13:40:58;1.83;;;1.00;;
39400;SDS011;54391;50.000;7.360;2022-11-15T13:43:31;5.75;;;3.50;;
39400;SDS011;54391;50.000;7.360;2022-11-15T13:46:05;9.15;;;3.28;;
39400;SDS011;54391;50.000;7.360;2022-11-15T13:48:34;1.92;;;0.85;;
39400;SDS011;54391;50.000;7.360;2022-11-15T13:51:04;1.75;;;0.88;;
39400;SDS011;54391;50.000;7.360;2022-11-15T13:53:33;3.35;;;0.80;;
39400;SDS011;54391;50.000;7.360;2022-11-15T13:56:06;1.52;;;0.85;;
39400;SDS011;54391;50.000;7.360;2022-11-15T13:58:37;2.00;;;1.10;;
39400;SDS011;54391;50.000;7.360;2022-11-15T14:01:05;2.13;;;0.75;;
39400;SDS011;54391;50.000;7.360;2022-11-15T14:03:34;1.67;;;1.00;;
39400;SDS011;54391;50.000;7.360;2022-11-15T14:06:09;3.17;;;1.30;;
39400;SDS011;54391;50.000;7.360;2022-11-15T14:08:40;2.10;;;0.90;;
39400;SDS011;54391;50.000;7.360;2022-11-15T14:11:23;1.90;;;0.85;;
39400;SDS011;54391;50.000;7.360;2022-11-15T14:14:03;1.08;;;0.93;;
39400;SDS011;54391;50.000;7.360;2022-11-15T14:16:40;3.10;;;0.75;;
39400;SDS011;54391;50.000;7.360;2022-11-15T14:19:09;2.17;;;0.85;;
39400;SDS011;54391;50.000;7.360;2022-11-15T14:24:42;2.97;;;1.50;;
39400;SDS011;54391;50.000;7.360;2022-11-15T14:27:21;2.13;;;0.90;;
39400;SDS011;54391;50.000;7.360;2022-11-15T14:29:50;2.83;;;0.90;;
39400;SDS011;54391;50.000;7.360;2022-11-15T14:32:19;1.67;;;0.82;;
39400;SDS011;54391;50.000;7.360;2022-11-15T14:34:48;1.52;;;0.90;;
39400;SDS011;54391;50.000;7.360;2022-11-15T14:37:21;1.50;;;0.80;;
39400;SDS011;54391;50.000;7.360;2022-11-15T14:39:52;0.55;;;0.55;;
39400;SDS011;54391;50.000;7.360;2022-11-15T14:42:21;2.70;;;1.25;;
39400;SDS011;54391;50.000;7.360;2022-11-15T14:44:49;1.95;;;0.80;;
39400;SDS011;54391;50.000;7.360;2022-11-15T14:47:17;2.95;;;0.90;;
39400;SDS011;54391;50.000;7.360;2022-11-15T14:49:45;1.05;;;0.70;;
39400;SDS011;54391;50.000;7.360;2022-11-15T14:55:01;3.97;;;1.00;;
39400;SDS011;54391;50.000;7.360;2022-11-15T14:57:30;2.47;;;0.80;;
39400;SDS011;54391;50.000;7.360;2022-11-15T14:59:57;4.90;;;1.98;;
39400;SDS011;54391;50.000;7.360;2022-11-15T15:02:38;2.15;;;1.00;;
39400;SDS011;54391;50.000;7.360;2022-11-15T15:05:14;2.03;;;1.00;;
39400;SDS011;54391;50.000;7.360;2022-11-15T15:07:43;1.95;;;1.05;;
39400;SDS011;54391;50.000;7.360;2022-11-15T15:10:13;1.50;;;0.95;;
39400;SDS011;54391;50.000;7.360;2022-11-15T15:12:42;2.08;;;1.10;;
39400;SDS011;54391;50.000;7.360;2022-11-15T15:15:14;1.95;;;1.00;;
39400;SDS011;54391;50.000;7.360;2022-11-15T15:17:43;2.38;;;1.10;;
39400;SDS011;54391;50.000;7.360;2022-11-15T15:20:11;1.42;;;0.90;;
39400;SDS011;54391;50.000;7.360;2022-11-15T15:22:38;2.75;;;0.90;;
39400;SDS011;54391;50.000;7.360;2022-11-15T15:25:18;1.10;;;0.60;;
39400;SDS011;54391;50.000;7.360;2022-11-15T15:27:48;1.58;;;0.85;;
39400;SDS011;54391;50.000;7.360;2022-11-15T15:30:16;1.70;;;0.90;;
39400;SDS011;54391;50.000;7.360;2022-11-15T15:32:43;1.95;;;0.82;;
39400;SDS011;54391;50.000;7.360;2022-11-15T15:35:11;2.50;;;0.73;;
39400;SDS011;54391;50.000;7.360;2022-11-15T15:37:40;2.60;;;1.15;;
39400;SDS011;54391;50.000;7.360;2022-11-15T15:40:10;2.85;;;1.17;;
39400;SDS011;54391;50.000;7.360;2022-11-15T15:42:42;2.75;;;1.08;;
39400;SDS011;54391;50.000;7.360;2022-11-15T15:45:10;5.25;;;1.10;;
39400;SDS011;54391;50.000;7.360;2022-11-15T15:47:38;2.53;;;1.10;;
39400;SDS011;54391;50.000;7.360;2022-11-15T15:50:11;2.92;;;1.17;;
39400;SDS011;54391;50.000;7.360;2022-11-15T15:52:47;2.15;;;1.17;;
39400;SDS011;54391;50.000;7.360;2022-11-15T15:55:14;1.48;;;0.90;;
39400;SDS011;54391;50.000;7.360;2022-11-15T15:57:43;2.03;;;1.13;;
39400;SDS011;54391;50.000;7.360;2022-11-15T16:00:13;3.45;;;1.10;;
39400;SDS011;54391;50.000;7.360;2022-11-15T16:02:41;2.55;;;1.17;;
39400;SDS011;54391;50.000;7.360;2022-11-15T16:05:09;1.95;;;0.90;;
39400;SDS011;54391;50.000;7.360;2022-11-15T16:07:37;3.03;;;1.60;;
39400;SDS011;54391;50.000;7.360;2022-11-15T16:10:14;1.92;;;1.27;;
39400;SDS011;54391;50.000;7.360;2022-11-15T16:12:46;2.38;;;1.17;;
39400;SDS011;54391;50.000;7.360;2022-11-15T16:15:14;3.10;;;1.58;;
39400;SDS011;54391;50.000;7.360;2022-11-15T16:17:43;2.15;;;1.10;;
39400;SDS011;54391;50.000;7.360;2022-11-15T16:20:20;2.47;;;1.20;;
39400;SDS011;54391;50.000;7.360;2022-11-15T16:22:59;1.98;;;1.00;;
39400;SDS011;54391;50.000;7.360;2022-11-15T16:25:29;2.53;;;1.10;;
39400;SDS011;54391;50.000;7.360;2022-11-15T16:28:00;2.10;;;1.20;;
39400;SDS011;54391;50.000;7.360;2022-11-15T16:30:28;2.08;;;1.05;;
39400;SDS011;54391;50.000;7.360;2022-11-15T16:32:55;2.35;;;1.15;;
39400;SDS011;54391;50.000;7.360;2022-11-15T16:35:23;2.38;;;1.58;;
39400;SDS011;54391;50.000;7.360;2022-11-15T16:37:50;2.72;;;1.20;;
39400;SDS011;54391;50.000;7.360;2022-11-15T16:40:21;3.08;;;1.52;;
39400;SDS011;54391;50.000;7.360;2022-11-15T16:42:52;1.85;;;1.20;;
39400;SDS011;54391;50.000;7.360;2022-11-15T16:45:22;2.92;;;1.38;;
39400;SDS011;54391;50.000;7.360;2022-11-15T16:47:50;2.40;;;1.20;;
39400;SDS011;54391;50.000;7.360;2022-11-15T16:50:19;2.10;;;1.40;;